Time;durP1;ratioP1;P1;durP2;ratioP2;P2;SDS_P1;SDS_P2;PMS_P1;PMS_P2;Temp;Humidity;BMP_temperature;BMP_pressure;BME280_temperature;BME280_humidity;BME280_pressure;Samples;Min_cycle;Max_cycle;Signal;HPM_P1;HPM_P2
2023/03/15 00:01:55;;;;;;;3.73;2.30;;;2.80;99.90;;;;;;5133671;27;20420;-68
2023/03/15 00:04:23;;;;;;;4.97;3.20;;;2.80;99.90;;;;;;5126321;27;20881;-69
2023/03/15 00:06:49;;;;;;;11.50;3.33;;;2.80;99.90;;;;;;5111641;28;20177;-70
2023/03/15 00:09:15;;;;;;;7.80;2.50;;;2.90;99.90;;;;;;5112879;28;20551;-68
2023/03/15 00:11:41;;;;;;;11.63;3.33;;;2.90;99.90;;;;;;5112964;28;20192;-69
2023/03/15 00:14:06;;;;;;;8.17;3.50;;;2.90;99.90;;;;;;5112836;28;20453;-69
2023/03/15 00:16:32;;;;;;;5.83;4.13;;;3.00;99.90;;;;;;5112592;28;20556;-70
2023/03/15 00:18:58;;;;;;;5.00;3.17;;;3.10;99.90;;;;;;5112595;28;20213;-69
2023/03/15 00:21:23;;;;;;;6.83;4.23;;;3.20;99.90;;;;;;5112740;28;20235;-69
2023/03/15 00:23:49;;;;;;;9.00;3.60;;;3.30;99.90;;;;;;5112652;28;20401;-69
2023/03/15 00:26:15;;;;;;;6.93;3.70;;;3.30;99.90;;;;;;5112813;28;20225;-69
2023/03/15 00:28:41;;;;;;;8.87;4.27;;;3.40;99.90;;;;;;5112265;28;20403;-69
2023/03/15 00:31:27;;;;;;;8.47;3.90;;;3.50;99.90;;;;;;5112675;28;20195;-69
2023/03/15 00:33:52;;;;;;;7.10;4.20;;;3.60;99.90;;;;;;5111521;28;20647;-69
2023/03/15 00:36:22;;;;;;;8.13;4.20;;;3.60;99.90;;;;;;5112633;28;20395;-69
2023/03/15 00:38:48;;;;;;;8.73;3.70;;;3.70;99.90;;;;;;5112215;28;20165;-69
2023/03/15 00:41:15;;;;;;;6.10;2.90;;;3.70;99.90;;;;;;5132118;27;20819;-70
2023/03/15 00:43:42;;;;;;;8.20;5.17;;;3.80;99.90;;;;;;5153436;27;20827;-69
2023/03/15 00:46:08;;;;;;;9.87;3.87;;;3.80;99.90;;;;;;5153657;27;20419;-68
2023/03/15 00:48:34;;;;;;;4.80;4.23;;;3.80;99.90;;;;;;5153537;27;20409;-69
2023/03/15 00:51:16;;;;;;;15.73;4.80;;;3.70;99.90;;;;;;5153610;27;20186;-69
2023/03/15 00:53:43;;;;;;;10.20;4.10;;;3.80;99.90;;;;;;5153748;27;20970;-69
2023/03/15 00:56:14;;;;;;;4.93;3.63;;;4.00;99.90;;;;;;5153826;27;20461;-69
2023/03/15 00:58:40;;;;;;;6.47;4.40;;;4.00;99.90;;;;;;5153688;27;20413;-70
2023/03/15 01:01:20;;;;;;;10.03;3.73;;;4.10;99.90;;;;;;5153837;27;20448;-69
2023/03/15 01:03:46;;;;;;;9.80;3.97;;;4.10;99.90;;;;;;5151868;27;20166;-69
2023/03/15 01:06:17;;;;;;;10.23;4.47;;;4.10;99.90;;;;;;5133306;27;20405;-69
2023/03/15 01:08:43;;;;;;;7.13;3.73;;;4.10;99.90;;;;;;5132877;27;20397;-69
2023/03/15 01:11:15;;;;;;;3.80;3.33;;;4.10;99.90;;;;;;5132803;27;20421;-68
2023/03/15 01:13:42;;;;;;;11.63;4.43;;;4.10;99.90;;;;;;5132953;27;20498;-68
2023/03/15 01:16:09;;;;;;;12.40;4.67;;;4.10;99.90;;;;;;5133109;27;20405;-68
2023/03/15 01:18:36;;;;;;;7.00;4.70;;;4.10;99.90;;;;;;5132548;27;20402;-70
2023/03/15 01:21:04;;;;;;;5.37;3.40;;;4.20;99.90;;;;;;5133027;27;20465;-68
2023/03/15 01:23:30;;;;;;;6.37;4.20;;;4.20;99.90;;;;;;5132762;27;20396;-68
2023/03/15 01:25:59;;;;;;;9.53;4.10;;;4.20;99.90;;;;;;5132969;28;21068;-69
2023/03/15 01:28:24;;;;;;;7.33;4.30;;;4.20;99.90;;;;;;5132804;27;20251;-69
2023/03/15 01:30:51;;;;;;;6.10;3.80;;;4.10;99.90;;;;;;5132793;27;20472;-69
2023/03/15 01:33:16;;;;;;;5.60;3.97;;;4.20;99.90;;;;;;5132830;27;20227;-69
2023/03/15 01:35:42;;;;;;;4.27;2.60;;;4.20;99.90;;;;;;5132862;27;20398;-68
2023/03/15 01:38:08;;;;;;;4.40;2.63;;;4.20;99.90;;;;;;5132674;27;20196;-69
2023/03/15 01:40:33;;;;;;;3.80;3.00;;;4.20;99.90;;;;;;5132776;27;20196;-69
2023/03/15 01:43:04;;;;;;;7.30;3.43;;;4.20;99.90;;;;;;5132975;28;20275;-70
2023/03/15 01:45:59;;;;;;;7.80;3.70;;;4.10;99.90;;;;;;5132802;28;20172;-69
2023/03/15 01:48:37;;;;;;;3.27;2.90;;;4.10;99.90;;;;;;5132388;27;20400;-69
2023/03/15 01:51:14;;;;;;;5.93;2.70;;;4.20;99.90;;;;;;5147300;27;20409;-70
2023/03/15 01:53:42;;;;;;;5.57;3.00;;;4.20;99.90;;;;;;5137025;27;20452;-69
2023/03/15 01:56:09;;;;;;;6.03;3.40;;;4.20;99.90;;;;;;5136458;27;20409;-69
2023/03/15 01:58:35;;;;;;;9.53;3.60;;;3.90;99.90;;;;;;5136206;27;20478;-69
2023/03/15 02:01:01;;;;;;;6.50;3.40;;;3.90;99.90;;;;;;5136261;27;20406;-69
2023/03/15 02:03:33;;;;;;;7.47;3.70;;;3.90;99.90;;;;;;5135248;27;20967;-69
2023/03/15 02:06:03;;;;;;;5.27;3.70;;;3.90;99.90;;;;;;5115655;28;20421;-69
2023/03/15 02:08:35;;;;;;;4.03;2.73;;;3.90;99.90;;;;;;5115373;28;20406;-69
2023/03/15 02:11:03;;;;;;;5.90;2.53;;;3.80;99.90;;;;;;5115762;28;20394;-69
2023/03/15 02:13:29;;;;;;;3.83;2.73;;;3.80;99.90;;;;;;5115459;28;20430;-69
2023/03/15 02:15:55;;;;;;;3.37;1.80;;;3.70;99.90;;;;;;5115285;28;20978;-69
2023/03/15 02:18:21;;;;;;;3.73;2.40;;;3.70;99.90;;;;;;5115266;28;20477;-68
2023/03/15 02:20:47;;;;;;;3.10;2.67;;;3.60;99.90;;;;;;5115316;28;20165;-69
2023/03/15 02:23:16;;;;;;;5.03;1.93;;;3.50;99.90;;;;;;5115357;28;20897;-69
2023/03/15 02:25:51;;;;;;;4.20;1.70;;;3.40;99.90;;;;;;5115628;28;20271;-69
2023/03/15 02:28:18;;;;;;;1.87;1.10;;;3.30;99.90;;;;;;5115164;28;20500;-68
2023/03/15 02:30:44;;;;;;;1.07;0.90;;;3.20;99.90;;;;;;5115273;28;20399;-68
2023/03/15 02:33:18;;;;;;;1.00;0.80;;;3.30;99.90;;;;;;5115161;28;20426;-69
2023/03/15 02:35:43;;;;;;;1.40;1.10;;;3.20;99.90;;;;;;5115309;28;20413;-69
2023/03/15 02:38:09;;;;;;;1.40;1.07;;;3.30;99.90;;;;;;5114933;28;20450;-69
2023/03/15 02:40:34;;;;;;;2.43;1.50;;;3.30;99.90;;;;;;5113771;28;20241;-69
2023/03/15 02:43:06;;;;;;;1.27;1.10;;;3.30;99.90;;;;;;5115090;28;20513;-69
2023/03/15 02:45:32;;;;;;;1.93;1.63;;;3.30;99.90;;;;;;5115035;28;20531;-69
2023/03/15 02:48:00;;;;;;;1.53;1.43;;;3.30;99.90;;;;;;5114701;28;20844;-69
2023/03/15 02:50:25;;;;;;;2.43;1.53;;;3.40;99.90;;;;;;5114976;28;20820;-69
2023/03/15 02:52:51;;;;;;;3.70;2.23;;;3.40;99.90;;;;;;5114861;28;20446;-68
2023/03/15 02:55:18;;;;;;;2.70;2.50;;;3.30;99.90;;;;;;5113784;28;20172;-69
2023/03/15 02:57:44;;;;;;;1.43;1.30;;;3.20;99.90;;;;;;5114467;28;20618;-68
2023/03/15 03:00:13;;;;;;;2.03;1.33;;;3.00;99.90;;;;;;5114673;28;20431;-69
2023/03/15 03:02:40;;;;;;;1.40;1.10;;;2.90;99.90;;;;;;5142149;27;20196;-70
2023/03/15 03:05:06;;;;;;;2.90;1.33;;;2.80;99.90;;;;;;5122613;27;20415;-69
2023/03/15 03:07:32;;;;;;;1.80;1.70;;;2.70;99.90;;;;;;5114336;28;20413;-69
2023/03/15 03:09:57;;;;;;;4.47;1.90;;;2.60;99.90;;;;;;5114309;28;20173;-69
2023/03/15 03:12:23;;;;;;;1.97;1.77;;;2.60;99.90;;;;;;5114083;28;20208;-68
2023/03/15 03:14:48;;;;;;;2.53;1.63;;;2.60;99.90;;;;;;5114038;28;20172;-69
2023/03/15 03:17:14;;;;;;;2.77;2.27;;;2.50;99.90;;;;;;5113840;28;20192;-69
2023/03/15 03:19:39;;;;;;;2.47;2.07;;;2.50;99.90;;;;;;5114156;28;20168;-68
2023/03/15 03:22:05;;;;;;;2.20;2.00;;;2.40;99.90;;;;;;5114122;28;20181;-70
2023/03/15 03:24:31;;;;;;;1.67;1.50;;;2.50;99.90;;;;;;5114117;28;20184;-69
2023/03/15 03:26:56;;;;;;;1.50;1.40;;;2.40;99.90;;;;;;5113871;28;20244;-69
2023/03/15 03:29:23;;;;;;;1.23;1.13;;;2.30;99.90;;;;;;5114068;28;20177;-69
2023/03/15 03:31:49;;;;;;;1.80;1.60;;;2.30;99.90;;;;;;5113868;28;20189;-69
2023/03/15 03:34:14;;;;;;;2.97;1.43;;;2.30;99.90;;;;;;5112968;28;20474;-68
2023/03/15 03:36:44;;;;;;;2.80;1.80;;;2.30;99.90;;;;;;5112625;28;20453;-69
2023/03/15 03:39:10;;;;;;;1.87;1.30;;;2.30;99.90;;;;;;5113595;28;20173;-70
2023/03/15 03:41:35;;;;;;;3.07;1.70;;;2.40;99.90;;;;;;5113759;28;20418;-68
2023/03/15 03:44:01;;;;;;;2.53;2.27;;;2.50;99.90;;;;;;5112417;28;20190;-68
2023/03/15 03:46:27;;;;;;;2.03;1.53;;;2.50;99.90;;;;;;5113869;28;20160;-68
2023/03/15 03:48:53;;;;;;;4.50;2.73;;;2.50;99.90;;;;;;5113383;28;20460;-69
2023/03/15 03:51:19;;;;;;;2.10;1.47;;;2.60;99.90;;;;;;5113481;28;20202;-69
2023/03/15 03:53:45;;;;;;;1.80;1.67;;;2.60;99.90;;;;;;5113509;28;20399;-69
2023/03/15 03:56:10;;;;;;;3.63;2.27;;;2.60;99.90;;;;;;5113791;28;20184;-69
2023/03/15 03:58:36;;;;;;;3.10;2.20;;;2.60;99.90;;;;;;5111708;28;20196;-69
2023/03/15 04:01:02;;;;;;;2.50;2.17;;;2.70;99.90;;;;;;5113333;28;20165;-69
2023/03/15 04:03:28;;;;;;;1.83;1.70;;;2.70;99.90;;;;;;5113438;28;20161;-69
2023/03/15 04:05:55;;;;;;;2.70;2.50;;;2.70;99.90;;;;;;5113227;28;20607;-68
2023/03/15 04:08:22;;;;;;;2.87;1.90;;;2.70;99.90;;;;;;5111791;28;20173;-70
2023/03/15 04:10:55;;;;;;;3.57;2.57;;;2.70;99.90;;;;;;5118980;27;20917;-69
2023/03/15 04:13:23;;;;;;;3.13;2.77;;;2.60;99.90;;;;;;5143324;27;20433;-70
2023/03/15 04:15:49;;;;;;;3.13;2.83;;;2.60;99.90;;;;;;5133978;27;20911;-68
2023/03/15 04:18:15;;;;;;;2.67;2.33;;;2.60;99.90;;;;;;5133390;27;20477;-69
2023/03/15 04:20:48;;;;;;;2.87;2.67;;;2.60;99.90;;;;;;5133608;27;20430;-69
2023/03/15 04:23:14;;;;;;;6.47;2.70;;;2.70;99.90;;;;;;5133622;27;20397;-69
2023/03/15 04:25:40;;;;;;;2.30;2.03;;;2.80;99.90;;;;;;5133785;27;20398;-69
2023/03/15 04:28:09;;;;;;;5.03;2.40;;;2.80;99.90;;;;;;5133210;27;20427;-69
2023/03/15 04:30:36;;;;;;;3.30;2.47;;;2.90;99.90;;;;;;5133743;27;20406;-69
2023/03/15 04:33:02;;;;;;;3.63;2.20;;;2.90;99.90;;;;;;5133530;27;20421;-68
2023/03/15 04:35:33;;;;;;;3.77;3.00;;;2.80;99.90;;;;;;5134026;27;20749;-69
2023/03/15 04:37:59;;;;;;;2.70;2.43;;;2.70;99.90;;;;;;5133421;27;20463;-69
2023/03/15 04:40:28;;;;;;;3.13;2.20;;;2.70;99.90;;;;;;5133643;27;20493;-69
2023/03/15 04:42:54;;;;;;;2.57;1.77;;;2.80;99.90;;;;;;5133570;27;20426;-70
2023/03/15 04:45:24;;;;;;;3.20;2.93;;;2.90;99.90;;;;;;5133572;27;20394;-69
2023/03/15 04:47:50;;;;;;;6.80;4.60;;;3.00;99.90;;;;;;5133059;27;20393;-69
2023/03/15 04:50:16;;;;;;;4.20;3.87;;;3.00;99.90;;;;;;5133321;27;20409;-68
2023/03/15 04:52:42;;;;;;;6.00;4.00;;;3.10;99.90;;;;;;5133168;27;20448;-69
2023/03/15 04:55:08;;;;;;;5.27;3.67;;;3.10;99.90;;;;;;5133137;27;20892;-69
2023/03/15 04:57:34;;;;;;;3.90;3.03;;;3.20;99.90;;;;;;5132554;27;20192;-70
2023/03/15 04:59:59;;;;;;;3.80;3.27;;;3.30;99.90;;;;;;5132766;27;20461;-69
2023/03/15 05:02:25;;;;;;;5.20;3.27;;;3.20;99.90;;;;;;5132540;28;20180;-70
2023/03/15 05:04:51;;;;;;;3.70;2.90;;;3.30;99.90;;;;;;5121374;27;20179;-69
2023/03/15 05:07:16;;;;;;;5.50;3.47;;;3.30;99.90;;;;;;5111904;28;20413;-69
2023/03/15 05:09:45;;;;;;;4.33;3.67;;;3.30;99.90;;;;;;5112141;28;20169;-68
2023/03/15 05:12:11;;;;;;;4.83;3.60;;;3.20;99.90;;;;;;5112040;28;20714;-68
2023/03/15 05:14:37;;;;;;;4.10;3.23;;;3.20;99.90;;;;;;5112298;28;20770;-68
2023/03/15 05:17:03;;;;;;;3.40;3.10;;;3.20;99.90;;;;;;5111692;28;20446;-68
2023/03/15 05:19:29;;;;;;;4.10;2.50;;;3.10;99.90;;;;;;5112159;28;20157;-68
2023/03/15 05:21:54;;;;;;;3.70;3.10;;;3.00;99.90;;;;;;5113494;27;20204;-67
2023/03/15 05:24:21;;;;;;;3.10;2.50;;;3.00;99.90;;;;;;5142325;27;20392;-67
2023/03/15 05:26:46;;;;;;;3.97;3.57;;;2.90;99.90;;;;;;5157413;27;20171;-66
2023/03/15 05:29:12;;;;;;;9.43;3.17;;;2.70;99.90;;;;;;5157327;27;20476;-68
2023/03/15 05:31:39;;;;;;;2.67;2.33;;;2.70;99.90;;;;;;5157297;27;20218;-68
2023/03/15 05:34:05;;;;;;;3.53;3.23;;;2.60;99.90;;;;;;5157509;27;20436;-66
2023/03/15 05:36:32;;;;;;;2.83;2.60;;;2.60;99.90;;;;;;5157216;27;20399;-67
2023/03/15 05:38:57;;;;;;;3.50;3.23;;;2.50;99.90;;;;;;5155632;27;20430;-68
2023/03/15 05:41:23;;;;;;;3.33;2.77;;;2.50;99.90;;;;;;5157082;27;20420;-68
2023/03/15 05:43:50;;;;;;;3.80;3.40;;;2.40;99.90;;;;;;5157488;27;20171;-68
2023/03/15 05:46:15;;;;;;;2.53;2.33;;;2.40;99.90;;;;;;5157115;27;20167;-68
2023/03/15 05:48:41;;;;;;;4.27;2.60;;;2.40;99.90;;;;;;5156801;27;20752;-68
2023/03/15 05:51:06;;;;;;;3.90;3.30;;;2.40;99.90;;;;;;5156971;27;20187;-68
2023/03/15 05:53:32;;;;;;;4.13;3.53;;;2.40;99.90;;;;;;5156868;27;20167;-68
2023/03/15 05:55:58;;;;;;;4.33;3.33;;;2.40;99.90;;;;;;5156934;27;20168;-68
2023/03/15 05:58:24;;;;;;;4.77;3.40;;;2.40;99.90;;;;;;5156502;27;20942;-68
2023/03/15 06:00:49;;;;;;;4.67;4.03;;;2.40;99.90;;;;;;5156857;27;20168;-68
2023/03/15 06:03:15;;;;;;;4.33;3.90;;;2.40;99.90;;;;;;5156734;27;20166;-68
2023/03/15 06:05:42;;;;;;;4.90;3.70;;;2.40;99.90;;;;;;5138266;27;20164;-68
2023/03/15 06:08:07;;;;;;;6.03;4.27;;;2.50;99.90;;;;;;5135571;27;20156;-68
2023/03/15 06:10:33;;;;;;;4.77;4.20;;;2.60;99.90;;;;;;5135912;27;20473;-68
2023/03/15 06:12:59;;;;;;;6.47;4.50;;;2.70;99.90;;;;;;5135662;27;20607;-68
2023/03/15 06:15:25;;;;;;;9.23;4.07;;;2.80;99.90;;;;;;5135811;27;20180;-68
2023/03/15 06:17:51;;;;;;;6.93;4.40;;;2.90;99.90;;;;;;5135256;27;20784;-68
2023/03/15 06:20:18;;;;;;;6.57;4.47;;;3.00;99.90;;;;;;5135657;27;20397;-68
2023/03/15 06:22:43;;;;;;;6.60;4.83;;;3.10;99.90;;;;;;5135729;27;20187;-69
2023/03/15 06:25:09;;;;;;;5.80;4.70;;;3.20;99.90;;;;;;5135724;27;20775;-67
2023/03/15 06:27:36;;;;;;;6.03;5.20;;;3.30;99.90;;;;;;5135563;27;20616;-68
2023/03/15 06:30:01;;;;;;;5.97;4.70;;;3.40;99.90;;;;;;5135522;27;20904;-68
2023/03/15 06:32:27;;;;;;;6.47;5.07;;;3.50;99.90;;;;;;5135603;27;20474;-67
2023/03/15 06:34:52;;;;;;;7.10;5.43;;;3.60;99.90;;;;;;5144442;27;20172;-68
2023/03/15 06:37:18;;;;;;;6.47;5.83;;;3.70;99.90;;;;;;5138687;27;20609;-68
2023/03/15 06:39:44;;;;;;;6.80;6.07;;;3.80;99.90;;;;;;5135573;27;20168;-68
2023/03/15 06:42:11;;;;;;;6.93;5.60;;;4.00;99.90;;;;;;5135431;27;20184;-68
2023/03/15 06:44:38;;;;;;;8.57;6.00;;;4.10;99.90;;;;;;5135381;27;20583;-68
2023/03/15 06:47:04;;;;;;;10.37;6.23;;;4.30;99.90;;;;;;5135203;27;20492;-68
2023/03/15 06:49:29;;;;;;;8.40;7.33;;;4.50;99.90;;;;;;5135123;27;20927;-68
2023/03/15 06:51:55;;;;;;;11.60;8.07;;;4.70;99.90;;;;;;5135129;27;20199;-67
2023/03/15 06:54:21;;;;;;;11.17;8.27;;;4.80;99.90;;;;;;5134971;27;20168;-68
2023/03/15 06:56:47;;;;;;;11.23;8.40;;;5.00;99.90;;;;;;5134931;27;20446;-67
2023/03/15 06:59:12;;;;;;;9.20;7.20;;;5.10;99.90;;;;;;5134700;27;20471;-67
2023/03/15 07:01:38;;;;;;;11.60;7.57;;;5.20;99.90;;;;;;5134910;27;20754;-68
2023/03/15 07:04:04;;;;;;;8.17;7.00;;;5.10;99.90;;;;;;5130082;27;20169;-67
2023/03/15 07:06:29;;;;;;;10.67;7.63;;;5.10;99.90;;;;;;5114263;28;20176;-68
2023/03/15 07:08:55;;;;;;;9.17;7.10;;;5.10;99.90;;;;;;5113943;28;20169;-68
2023/03/15 07:11:20;;;;;;;11.07;7.23;;;5.10;99.90;;;;;;5114221;28;20218;-68
2023/03/15 07:13:46;;;;;;;8.13;6.10;;;5.10;99.90;;;;;;5114079;28;20196;-68
2023/03/15 07:16:11;;;;;;;9.50;6.80;;;5.10;99.90;;;;;;5114040;28;20688;-68
2023/03/15 07:18:37;;;;;;;9.87;7.70;;;5.20;99.90;;;;;;5113725;28;20205;-68
2023/03/15 07:21:03;;;;;;;12.67;7.23;;;5.30;99.90;;;;;;5113915;28;20203;-67
2023/03/15 07:23:29;;;;;;;11.70;8.33;;;5.40;99.90;;;;;;5114007;28;20260;-68
2023/03/15 07:25:55;;;;;;;15.80;7.87;;;5.50;99.90;;;;;;5114023;28;20977;-68
2023/03/15 07:28:23;;;;;;;8.20;7.00;;;5.70;99.90;;;;;;5113628;28;20885;-68
2023/03/15 07:31:00;;;;;;;14.50;7.57;;;5.90;99.90;;;;;;5113721;28;20169;-68
2023/03/15 07:33:27;;;;;;;10.10;7.83;;;6.10;99.90;;;;;;5113773;27;20874;-68
2023/03/15 07:35:53;;;;;;;10.00;7.37;;;6.20;99.90;;;;;;5113720;28;20402;-68
2023/03/15 07:38:24;;;;;;;9.77;7.03;;;6.40;99.90;;;;;;5113304;28;20459;-68
2023/03/15 07:40:50;;;;;;;10.73;6.80;;;6.50;99.90;;;;;;5113495;27;20430;-69
2023/03/15 07:43:15;;;;;;;11.90;8.70;;;6.60;99.90;;;;;;5113562;28;20487;-68
2023/03/15 07:45:41;;;;;;;8.90;6.93;;;6.90;99.90;;;;;;5125354;27;20167;-68
2023/03/15 07:48:07;;;;;;;8.43;7.00;;;7.10;99.90;;;;;;5132722;27;20420;-67
2023/03/15 07:50:33;;;;;;;9.23;6.70;;;7.40;99.90;;;;;;5133989;27;20255;-68
2023/03/15 07:52:58;;;;;;;8.20;6.57;;;7.50;99.90;;;;;;5133858;27;20192;-68
2023/03/15 07:55:24;;;;;;;14.10;7.67;;;7.60;99.90;;;;;;5133858;27;20176;-69
2023/03/15 07:57:50;;;;;;;10.13;8.10;;;7.60;99.90;;;;;;5133458;27;20236;-69
2023/03/15 08:00:17;;;;;;;11.60;8.80;;;7.40;99.90;;;;;;5133843;27;20217;-69
2023/03/15 08:02:42;;;;;;;8.80;7.80;;;7.30;99.90;;;;;;5133690;27;20430;-69
2023/03/15 08:05:09;;;;;;;9.80;7.50;;;7.00;99.90;;;;;;5119810;27;20410;-68
2023/03/15 08:07:35;;;;;;;9.03;6.40;;;6.90;99.90;;;;;;5112796;28;20407;-69
2023/03/15 08:10:05;;;;;;;11.90;7.50;;;6.70;99.90;;;;;;5113121;28;20943;-69
2023/03/15 08:12:30;;;;;;;9.70;7.73;;;6.50;99.90;;;;;;5112918;28;20452;-69
2023/03/15 08:14:56;;;;;;;9.33;6.77;;;6.40;99.90;;;;;;5111758;28;20410;-69
2023/03/15 08:17:21;;;;;;;8.43;7.00;;;6.30;99.90;;;;;;5112846;28;20682;-69
2023/03/15 08:19:47;;;;;;;8.90;7.50;;;6.30;99.90;;;;;;5113147;28;20169;-69
2023/03/15 08:22:12;;;;;;;8.60;6.33;;;6.30;99.90;;;;;;5112936;28;20335;-69
2023/03/15 08:24:38;;;;;;;7.07;5.53;;;6.30;99.90;;;;;;5112977;28;20168;-70
2023/03/15 08:27:04;;;;;;;10.17;6.17;;;6.30;99.90;;;;;;5112614;28;20164;-69
2023/03/15 08:29:30;;;;;;;10.53;8.00;;;6.40;99.90;;;;;;5112868;28;20171;-69
2023/03/15 08:31:56;;;;;;;10.97;6.97;;;6.50;99.90;;;;;;5112630;28;20267;-69
2023/03/15 08:34:22;;;;;;;10.23;6.23;;;6.60;99.90;;;;;;5112779;28;20414;-69
2023/03/15 08:36:48;;;;;;;9.23;6.57;;;6.70;99.90;;;;;;5112436;28;20442;-69
2023/03/15 08:39:14;;;;;;;9.97;6.60;;;6.80;99.90;;;;;;5112458;28;20911;-69
2023/03/15 08:41:40;;;;;;;10.23;6.50;;;7.00;99.90;;;;;;5112562;28;20824;-69
2023/03/15 08:44:06;;;;;;;7.10;4.80;;;7.10;99.90;;;;;;5112710;28;20188;-69
2023/03/15 08:46:32;;;;;;;9.23;6.07;;;7.20;99.90;;;;;;5111132;28;20430;-71
2023/03/15 08:48:58;;;;;;;7.90;5.30;;;7.30;99.90;;;;;;5112245;28;20402;-69
2023/03/15 08:51:25;;;;;;;6.87;4.70;;;7.40;99.90;;;;;;5112400;28;20425;-69
2023/03/15 08:53:51;;;;;;;9.40;5.80;;;7.50;99.90;;;;;;5112427;28;20403;-69
2023/03/15 08:56:17;;;;;;;6.10;4.70;;;7.60;99.90;;;;;;5112664;28;20394;-69
2023/03/15 08:58:43;;;;;;;7.57;5.70;;;7.60;99.90;;;;;;5144817;27;20545;-69
2023/03/15 09:01:13;;;;;;;6.00;5.27;;;7.60;99.90;;;;;;5132777;28;20850;-70
2023/03/15 09:03:38;;;;;;;8.70;5.70;;;7.80;99.90;;;;;;5131732;27;20152;-70
2023/03/15 09:06:04;;;;;;;8.27;4.70;;;7.80;99.90;;;;;;5112200;28;20406;-70
2023/03/15 09:08:32;;;;;;;11.53;5.37;;;8.00;99.90;;;;;;5112430;28;20165;-70
2023/03/15 09:10:58;;;;;;;7.13;5.23;;;8.10;99.90;;;;;;5113188;28;20885;-70
2023/03/15 09:13:24;;;;;;;6.53;4.90;;;8.20;99.90;;;;;;5112646;28;20427;-69
2023/03/15 09:15:51;;;;;;;5.10;4.60;;;8.20;99.90;;;;;;5112223;28;20746;-69
2023/03/15 09:18:17;;;;;;;7.00;4.77;;;8.80;99.90;;;;;;5111981;28;20451;-69
2023/03/15 09:20:43;;;;;;;5.70;5.10;;;9.40;99.90;;;;;;5111969;28;20409;-69
2023/03/15 09:23:09;;;;;;;5.23;4.67;;;11.20;99.90;;;;;;5112050;28;20921;-70
2023/03/15 09:25:35;;;;;;;5.53;4.03;;;12.00;99.90;;;;;;5112163;28;20188;-70
2023/03/15 09:28:02;;;;;;;6.23;3.67;;;13.20;99.90;;;;;;5109918;28;20195;-70
2023/03/15 09:30:28;;;;;;;4.60;4.20;;;13.60;99.90;;;;;;5112368;28;20430;-70
2023/03/15 09:32:54;;;;;;;7.07;3.20;;;13.60;99.90;;;;;;5111020;28;21033;-69
2023/03/15 09:35:20;;;;;;;5.17;4.17;;;13.50;99.90;;;;;;5111978;28;20543;-71
2023/03/15 09:37:47;;;;;;;4.17;3.77;;;14.00;99.90;;;;;;5111632;28;20188;-71
2023/03/15 09:40:30;;;;;;;3.67;3.37;;;14.30;99.90;;;;;;5112103;28;20398;-70
2023/03/15 09:43:09;;;;;;;7.93;3.23;;;14.50;99.90;;;;;;5111912;28;20418;-71
2023/03/15 09:45:40;;;;;;;3.93;3.50;;;14.50;99.90;;;;;;5111881;28;20394;-70
2023/03/15 09:48:13;;;;;;;6.40;3.10;;;14.20;99.90;;;;;;5110414;28;20411;-70
2023/03/15 09:50:49;;;;;;;4.60;2.93;;;14.10;99.90;;;;;;5111919;28;20463;-71
2023/03/15 09:53:21;;;;;;;3.10;2.80;;;14.20;99.90;;;;;;5110617;28;20823;-71
2023/03/15 09:55:48;;;;;;;5.40;3.67;;;15.80;99.90;;;;;;5111902;28;20440;-71
2023/03/15 09:58:38;;;;;;;3.67;2.60;;;19.70;99.40;;;;;;5111483;28;20447;-72
2023/03/15 10:01:12;;;;;;;2.60;2.40;;;23.50;79.10;;;;;;5111255;28;20414;-69
2023/03/15 10:03:50;;;;;;;5.70;2.30;;;27.50;55.90;;;;;;5115432;27;20404;-70
2023/03/15 10:06:25;;;;;;;2.40;2.17;;;30.50;47.10;;;;;;5143858;27;20410;-70
2023/03/15 10:08:56;;;;;;;4.23;2.40;;;33.20;41.80;;;;;;5132163;27;20413;-71
2023/03/15 10:11:25;;;;;;;2.30;2.10;;;35.50;37.20;;;;;;5135356;27;20791;-71
2023/03/15 10:14:18;;;;;;;2.50;2.20;;;37.40;34.90;;;;;;5136436;27;20427;-71
2023/03/15 10:16:49;;;;;;;2.63;2.20;;;39.20;32.00;;;;;;5135813;27;20754;-71
2023/03/15 10:19:21;;;;;;;2.73;2.30;;;40.70;29.10;;;;;;5135812;27;20399;-71
2023/03/15 10:22:11;;;;;;;2.30;2.10;;;41.60;28.30;;;;;;5135752;27;20396;-71
2023/03/15 10:24:49;;;;;;;4.53;2.57;;;42.40;26.50;;;;;;5135757;27;20896;-70
2023/03/15 10:27:49;;;;;;;2.50;2.30;;;41.10;25.00;;;;;;5135670;27;20967;-70
2023/03/15 10:30:19;;;;;;;2.63;2.43;;;38.10;24.80;;;;;;5131391;27;20406;-70
2023/03/15 10:32:56;;;;;;;2.17;1.80;;;34.90;25.70;;;;;;5135451;27;20908;-69
2023/03/15 10:35:21;;;;;;;3.10;2.27;;;32.60;26.50;;;;;;5135578;27;20389;-70
2023/03/15 10:37:47;;;;;;;3.27;2.43;;;32.00;28.60;;;;;;5135015;27;20464;-70
2023/03/15 10:40:15;;;;;;;2.53;1.90;;;33.20;28.20;;;;;;5135404;27;20164;-70
2023/03/15 10:42:43;;;;;;;4.53;2.20;;;33.20;27.40;;;;;;5135207;27;20418;-69
2023/03/15 10:45:23;;;;;;;4.03;2.07;;;33.10;27.70;;;;;;5134949;27;20402;-70
2023/03/15 10:47:50;;;;;;;2.50;2.30;;;32.40;27.60;;;;;;5134929;27;20461;-71
2023/03/15 10:50:28;;;;;;;3.60;2.60;;;30.90;27.40;;;;;;5135112;27;20398;-70
2023/03/15 10:52:55;;;;;;;4.10;2.50;;;29.50;27.30;;;;;;5135347;27;20514;-70
2023/03/15 10:55:36;;;;;;;6.73;2.57;;;27.80;28.30;;;;;;5135150;27;20417;-69
2023/03/15 10:58:29;;;;;;;4.53;2.47;;;26.30;29.80;;;;;;5134751;27;20437;-69
2023/03/15 11:01:06;;;;;;;4.60;2.20;;;25.00;30.20;;;;;;5135046;27;20422;-68
2023/03/15 11:03:33;;;;;;;4.23;2.40;;;25.40;32.80;;;;;;5134782;27;20389;-68
2023/03/15 11:05:59;;;;;;;3.57;2.10;;;25.90;32.60;;;;;;5114334;28;20402;-68
2023/03/15 11:08:40;;;;;;;2.93;2.03;;;25.70;32.40;;;;;;5114030;28;20395;-67
2023/03/15 11:11:07;;;;;;;3.20;2.00;;;25.70;32.50;;;;;;5114045;28;20168;-67
2023/03/15 11:13:34;;;;;;;3.30;1.80;;;26.00;32.60;;;;;;5114093;28;20920;-68
2023/03/15 11:16:04;;;;;;;1.47;1.37;;;26.60;32.70;;;;;;5128802;27;20414;-68
2023/03/15 11:18:43;;;;;;;3.50;1.87;;;29.20;33.00;;;;;;5134276;27;21003;-68
2023/03/15 11:21:22;;;;;;;5.03;2.20;;;32.10;31.30;;;;;;5133901;27;20421;-68
2023/03/15 11:23:49;;;;;;;4.80;2.47;;;35.40;29.40;;;;;;5134445;27;20397;-69
2023/03/15 11:26:23;;;;;;;2.37;2.17;;;37.90;27.40;;;;;;5134542;27;20393;-69
2023/03/15 11:29:01;;;;;;;4.13;1.93;;;40.10;26.40;;;;;;5134237;27;20459;-69
2023/03/15 11:31:29;;;;;;;4.33;2.30;;;42.00;24.50;;;;;;5134328;27;20447;-69
2023/03/15 11:34:12;;;;;;;1.70;1.60;;;43.50;24.20;;;;;;5134226;27;20406;-69
2023/03/15 11:36:42;;;;;;;3.00;2.40;;;44.80;23.90;;;;;;5134249;27;20380;-69
2023/03/15 11:39:12;;;;;;;2.60;2.40;;;45.70;21.20;;;;;;5133987;27;20405;-69
2023/03/15 11:41:46;;;;;;;3.33;2.10;;;46.10;21.70;;;;;;5134198;27;20483;-69
2023/03/15 11:44:22;;;;;;;3.67;2.53;;;46.50;21.70;;;;;;5134163;27;20490;-69
2023/03/15 11:46:49;;;;;;;2.30;2.10;;;47.20;21.90;;;;;;5134347;27;20437;-69
2023/03/15 11:49:41;;;;;;;6.87;3.07;;;47.50;21.30;;;;;;5133707;27;20489;-69
2023/03/15 11:52:07;;;;;;;2.07;1.97;;;48.00;21.00;;;;;;5134019;27;20388;-69
2023/03/15 11:54:33;;;;;;;2.33;2.13;;;47.30;18.40;;;;;;5134019;27;20429;-69
2023/03/15 11:57:05;;;;;;;3.07;1.90;;;46.70;19.70;;;;;;5132169;27;20192;-69
2023/03/15 11:59:36;;;;;;;2.40;2.13;;;45.20;18.30;;;;;;5133821;27;20247;-69
2023/03/15 12:02:25;;;;;;;2.20;1.83;;;45.20;20.40;;;;;;5133812;27;20407;-69
2023/03/15 12:04:53;;;;;;;2.40;2.20;;;45.60;20.40;;;;;;5120982;27;20378;-69
2023/03/15 12:07:18;;;;;;;4.70;2.27;;;45.60;19.70;;;;;;5112762;28;20822;-69
2023/03/15 12:09:50;;;;;;;2.87;2.57;;;45.30;20.00;;;;;;5111722;28;20389;-69
2023/03/15 12:12:25;;;;;;;3.90;2.13;;;45.10;19.40;;;;;;5112841;28;20209;-69
2023/03/15 12:15:18;;;;;;;4.23;2.10;;;45.10;20.00;;;;;;5112972;28;20402;-69
2023/03/15 12:17:53;;;;;;;2.30;2.13;;;45.10;19.00;;;;;;5112498;28;20923;-69
2023/03/15 12:20:39;;;;;;;4.30;3.10;;;44.80;19.80;;;;;;5112989;28;20403;-71
2023/03/15 12:23:14;;;;;;;1.83;1.70;;;44.20;18.50;;;;;;5112970;28;20544;-70
2023/03/15 12:25:52;;;;;;;3.93;2.30;;;43.20;18.50;;;;;;5111507;28;20413;-69
2023/03/15 12:28:27;;;;;;;3.37;2.30;;;42.30;18.60;;;;;;5133899;27;20500;-71
2023/03/15 12:31:00;;;;;;;6.73;2.20;;;41.50;19.80;;;;;;5154061;27;20436;-69
2023/03/15 12:33:29;;;;;;;3.90;2.10;;;39.80;19.20;;;;;;5153610;27;20881;-68
2023/03/15 12:36:13;;;;;;;3.43;2.07;;;38.60;19.80;;;;;;5153945;27;20405;-68
2023/03/15 12:38:40;;;;;;;2.83;2.10;;;37.40;20.00;;;;;;5153504;27;20436;-68
2023/03/15 12:41:45;;;;;;;2.37;1.87;;;36.20;20.30;;;;;;5153763;27;20408;-68
2023/03/15 12:44:41;;;;;;;2.57;1.70;;;34.00;20.90;;;;;;5153920;27;20471;-68
2023/03/15 12:47:11;;;;;;;3.30;2.00;;;32.20;22.00;;;;;;5153445;27;20393;-69
2023/03/15 12:49:44;;;;;;;5.50;1.60;;;30.30;22.40;;;;;;5153783;27;20492;-71
2023/03/15 12:52:10;;;;;;;6.27;2.00;;;28.60;23.20;;;;;;5154036;27;20531;-70
2023/03/15 12:54:53;;;;;;;2.07;1.57;;;26.20;23.70;;;;;;5152874;27;20938;-70
2023/03/15 12:57:29;;;;;;;4.63;1.70;;;24.20;25.00;;;;;;5152337;27;20665;-70
2023/03/15 12:59:59;;;;;;;3.53;1.60;;;22.30;25.80;;;;;;5154031;27;20396;-70
2023/03/15 13:02:25;;;;;;;2.13;1.67;;;20.30;26.50;;;;;;5153760;27;20456;-71